sensor_id;sensor_type;location;lat;lon;timestamp;P1;durP1;ratioP1;P2;durP2;ratioP2
12435;SDS011;6282;51.440;6.938;2023-02-28T00:01:18;1999.90;;;999.90;;
12435;SDS011;6282;51.440;6.938;2023-02-28T00:03:45;1999.90;;;999.90;;
12435;SDS011;6282;51.440;6.938;2023-02-28T00:06:13;1999.90;;;999.90;;
12435;SDS011;6282;51.440;6.938;2023-02-28T00:08:40;1999.90;;;999.90;;
12435;SDS011;6282;51.440;6.938;2023-02-28T00:11:08;1999.90;;;999.90;;
12435;SDS011;6282;51.440;6.938;2023-02-28T00:13:38;1999.90;;;999.90;;
12435;SDS011;6282;51.440;6.938;2023-02-28T00:16:08;1999.90;;;999.90;;
12435;SDS011;6282;51.440;6.938;2023-02-28T00:18:36;1999.90;;;999.90;;
12435;SDS011;6282;51.440;6.938;2023-02-28T00:21:03;1999.90;;;999.90;;
12435;SDS011;6282;51.440;6.938;2023-02-28T00:23:32;1999.90;;;999.90;;
12435;SDS011;6282;51.440;6.938;2023-02-28T00:25:59;1999.90;;;999.90;;
12435;SDS011;6282;51.440;6.938;2023-02-28T00:28:26;1999.90;;;999.90;;
12435;SDS011;6282;51.440;6.938;2023-02-28T00:30:53;1999.90;;;999.90;;
12435;SDS011;6282;51.440;6.938;2023-02-28T00:33:20;1999.90;;;999.90;;
12435;SDS011;6282;51.440;6.938;2023-02-28T00:35:47;1999.90;;;999.90;;
12435;SDS011;6282;51.440;6.938;2023-02-28T00:38:14;1999.90;;;999.90;;
12435;SDS011;6282;51.440;6.938;2023-02-28T00:40:43;1999.90;;;999.90;;
12435;SDS011;6282;51.440;6.938;2023-02-28T00:43:09;1999.90;;;999.90;;
12435;SDS011;6282;51.440;6.938;2023-02-28T00:45:36;1999.90;;;999.90;;
12435;SDS011;6282;51.440;6.938;2023-02-28T00:48:03;1999.90;;;999.90;;
12435;SDS011;6282;51.440;6.938;2023-02-28T00:50:31;1999.90;;;999.90;;
12435;SDS011;6282;51.440;6.938;2023-02-28T00:52:58;1999.90;;;999.90;;
12435;SDS011;6282;51.440;6.938;2023-02-28T00:55:24;1999.90;;;999.90;;
12435;SDS011;6282;51.440;6.938;2023-02-28T00:57:53;1999.90;;;999.90;;
12435;SDS011;6282;51.440;6.938;2023-02-28T01:00:19;1999.90;;;999.90;;
12435;SDS011;6282;51.440;6.938;2023-02-28T01:02:47;1999.90;;;999.90;;
12435;SDS011;6282;51.440;6.938;2023-02-28T01:05:13;1999.90;;;999.90;;
12435;SDS011;6282;51.440;6.938;2023-02-28T01:07:40;1999.90;;;999.90;;
12435;SDS011;6282;51.440;6.938;2023-02-28T01:10:08;1999.90;;;999.90;;
12435;SDS011;6282;51.440;6.938;2023-02-28T01:12:35;1999.90;;;999.90;;
12435;SDS011;6282;51.440;6.938;2023-02-28T01:15:04;1999.90;;;999.90;;
12435;SDS011;6282;51.440;6.938;2023-02-28T01:17:32;1999.90;;;999.90;;
12435;SDS011;6282;51.440;6.938;2023-02-28T01:19:59;1999.90;;;999.90;;
12435;SDS011;6282;51.440;6.938;2023-02-28T01:22:25;1999.90;;;999.90;;
12435;SDS011;6282;51.440;6.938;2023-02-28T01:24:53;1999.90;;;999.90;;
12435;SDS011;6282;51.440;6.938;2023-02-28T01:27:20;1999.90;;;999.90;;
12435;SDS011;6282;51.440;6.938;2023-02-28T01:29:47;1999.90;;;999.90;;
12435;SDS011;6282;51.440;6.938;2023-02-28T01:32:15;1999.90;;;999.90;;
12435;SDS011;6282;51.440;6.938;2023-02-28T01:34:42;1999.90;;;999.90;;
12435;SDS011;6282;51.440;6.938;2023-02-28T01:37:09;1999.90;;;999.90;;
12435;SDS011;6282;51.440;6.938;2023-02-28T01:39:35;1999.90;;;999.90;;
12435;SDS011;6282;51.440;6.938;2023-02-28T01:42:02;1999.90;;;999.90;;
12435;SDS011;6282;51.440;6.938;2023-02-28T01:47:26;1999.90;;;999.90;;
12435;SDS011;6282;51.440;6.938;2023-02-28T01:49:55;1999.90;;;999.90;;
12435;SDS011;6282;51.440;6.938;2023-02-28T01:52:22;1999.90;;;999.90;;
12435;SDS011;6282;51.440;6.938;2023-02-28T01:54:51;1999.90;;;999.90;;
12435;SDS011;6282;51.440;6.938;2023-02-28T01:57:21;1999.90;;;999.90;;
12435;SDS011;6282;51.440;6.938;2023-02-28T01:59:51;1999.90;;;999.90;;
12435;SDS011;6282;51.440;6.938;2023-02-28T02:02:24;1999.90;;;999.90;;
12435;SDS011;6282;51.440;6.938;2023-02-28T02:04:54;128.13;;;122.10;;
12435;SDS011;6282;51.440;6.938;2023-02-28T02:07:26;743.57;;;406.80;;
12435;SDS011;6282;51.440;6.938;2023-02-28T02:10:02;1999.90;;;999.90;;
12435;SDS011;6282;51.440;6.938;2023-02-28T02:12:34;1999.90;;;999.90;;
12435;SDS011;6282;51.440;6.938;2023-02-28T02:15:16;1999.90;;;999.90;;
12435;SDS011;6282;51.440;6.938;2023-02-28T02:17:50;116.00;;;110.93;;
12435;SDS011;6282;51.440;6.938;2023-02-28T02:23:30;1999.90;;;999.90;;
12435;SDS011;6282;51.440;6.938;2023-02-28T02:26:20;106.00;;;101.27;;
12435;SDS011;6282;51.440;6.938;2023-02-28T02:29:03;104.13;;;99.47;;
12435;SDS011;6282;51.440;6.938;2023-02-28T02:31:54;109.00;;;103.87;;
12435;SDS011;6282;51.440;6.938;2023-02-28T02:34:44;107.03;;;102.17;;
12435;SDS011;6282;51.440;6.938;2023-02-28T02:37:23;118.03;;;112.70;;
12435;SDS011;6282;51.440;6.938;2023-02-28T02:39:58;100.60;;;95.90;;
12435;SDS011;6282;51.440;6.938;2023-02-28T02:42:32;111.23;;;106.37;;
12435;SDS011;6282;51.440;6.938;2023-02-28T02:45:05;751.97;;;414.90;;
12435;SDS011;6282;51.440;6.938;2023-02-28T02:47:35;111.67;;;106.70;;
12435;SDS011;6282;51.440;6.938;2023-02-28T02:50:07;108.73;;;104.00;;
12435;SDS011;6282;51.440;6.938;2023-02-28T02:52:38;107.30;;;102.40;;
12435;SDS011;6282;51.440;6.938;2023-02-28T02:55:10;105.77;;;100.87;;
12435;SDS011;6282;51.440;6.938;2023-02-28T02:57:40;111.13;;;106.23;;
12435;SDS011;6282;51.440;6.938;2023-02-28T03:00:12;107.37;;;102.47;;
12435;SDS011;6282;51.440;6.938;2023-02-28T03:02:42;1999.90;;;999.90;;
12435;SDS011;6282;51.440;6.938;2023-02-28T03:05:14;1999.90;;;999.90;;
12435;SDS011;6282;51.440;6.938;2023-02-28T03:07:46;1999.90;;;999.90;;
12435;SDS011;6282;51.440;6.938;2023-02-28T03:10:26;1999.90;;;999.90;;
12435;SDS011;6282;51.440;6.938;2023-02-28T03:12:59;1999.90;;;999.90;;
12435;SDS011;6282;51.440;6.938;2023-02-28T03:15:32;1999.90;;;999.90;;
12435;SDS011;6282;51.440;6.938;2023-02-28T03:18:07;1999.90;;;999.90;;
12435;SDS011;6282;51.440;6.938;2023-02-28T03:20:41;1999.90;;;999.90;;
12435;SDS011;6282;51.440;6.938;2023-02-28T03:23:17;1999.90;;;999.90;;
12435;SDS011;6282;51.440;6.938;2023-02-28T03:25:52;1999.90;;;999.90;;
12435;SDS011;6282;51.440;6.938;2023-02-28T03:28:28;1999.90;;;999.90;;
12435;SDS011;6282;51.440;6.938;2023-02-28T03:30:59;1999.90;;;999.90;;
12435;SDS011;6282;51.440;6.938;2023-02-28T03:33:30;1999.90;;;999.90;;
12435;SDS011;6282;51.440;6.938;2023-02-28T03:36:04;1999.90;;;999.90;;
12435;SDS011;6282;51.440;6.938;2023-02-28T03:38:35;1999.90;;;999.90;;
12435;SDS011;6282;51.440;6.938;2023-02-28T03:41:09;1999.90;;;999.90;;
12435;SDS011;6282;51.440;6.938;2023-02-28T03:43:40;1999.90;;;999.90;;
12435;SDS011;6282;51.440;6.938;2023-02-28T03:46:12;1999.90;;;999.90;;
12435;SDS011;6282;51.440;6.938;2023-02-28T03:48:44;1999.90;;;999.90;;
12435;SDS011;6282;51.440;6.938;2023-02-28T03:51:18;1999.90;;;999.90;;
12435;SDS011;6282;51.440;6.938;2023-02-28T03:53:47;1999.90;;;999.90;;
12435;SDS011;6282;51.440;6.938;2023-02-28T03:56:19;1999.90;;;999.90;;
12435;SDS011;6282;51.440;6.938;2023-02-28T03:58:49;1999.90;;;999.90;;
12435;SDS011;6282;51.440;6.938;2023-02-28T04:01:20;1999.90;;;999.90;;
12435;SDS011;6282;51.440;6.938;2023-02-28T04:03:50;1999.90;;;999.90;;
12435;SDS011;6282;51.440;6.938;2023-02-28T04:06:19;1999.90;;;999.90;;
12435;SDS011;6282;51.440;6.938;2023-02-28T04:08:48;1999.90;;;999.90;;
12435;SDS011;6282;51.440;6.938;2023-02-28T04:11:18;1999.90;;;999.90;;
12435;SDS011;6282;51.440;6.938;2023-02-28T04:13:48;1999.90;;;999.90;;
12435;SDS011;6282;51.440;6.938;2023-02-28T04:16:15;1999.90;;;999.90;;
12435;SDS011;6282;51.440;6.938;2023-02-28T04:18:42;1999.90;;;999.90;;
12435;SDS011;6282;51.440;6.938;2023-02-28T04:21:10;1999.90;;;999.90;;
12435;SDS011;6282;51.440;6.938;2023-02-28T04:23:39;1999.90;;;999.90;;
12435;SDS011;6282;51.440;6.938;2023-02-28T04:26:06;1999.90;;;999.90;;
12435;SDS011;6282;51.440;6.938;2023-02-28T04:28:33;1999.90;;;999.90;;
12435;SDS011;6282;51.440;6.938;2023-02-28T04:31:01;1999.90;;;999.90;;
12435;SDS011;6282;51.440;6.938;2023-02-28T04:33:30;1999.90;;;999.90;;
12435;SDS011;6282;51.440;6.938;2023-02-28T04:35:58;1999.90;;;999.90;;
12435;SDS011;6282;51.440;6.938;2023-02-28T04:38:26;1999.90;;;999.90;;
12435;SDS011;6282;51.440;6.938;2023-02-28T04:40:56;1999.90;;;999.90;;
12435;SDS011;6282;51.440;6.938;2023-02-28T04:43:23;1999.90;;;999.90;;
12435;SDS011;6282;51.440;6.938;2023-02-28T04:45:50;1999.90;;;999.90;;
12435;SDS011;6282;51.440;6.938;2023-02-28T04:48:17;1999.90;;;999.90;;
12435;SDS011;6282;51.440;6.938;2023-02-28T04:50:44;1999.90;;;999.90;;
12435;SDS011;6282;51.440;6.938;2023-02-28T04:53:10;1999.90;;;999.90;;
12435;SDS011;6282;51.440;6.938;2023-02-28T04:55:37;1999.90;;;999.90;;
12435;SDS011;6282;51.440;6.938;2023-02-28T04:58:07;1999.90;;;999.90;;
12435;SDS011;6282;51.440;6.938;2023-02-28T05:00:33;1999.90;;;999.90;;
12435;SDS011;6282;51.440;6.938;2023-02-28T05:03:00;1999.90;;;999.90;;
12435;SDS011;6282;51.440;6.938;2023-02-28T05:05:27;1999.90;;;999.90;;
12435;SDS011;6282;51.440;6.938;2023-02-28T05:07:54;1999.90;;;999.90;;
12435;SDS011;6282;51.440;6.938;2023-02-28T05:10:21;1999.90;;;999.90;;
12435;SDS011;6282;51.440;6.938;2023-02-28T05:12:48;1999.90;;;999.90;;
12435;SDS011;6282;51.440;6.938;2023-02-28T05:15:16;1999.90;;;999.90;;
12435;SDS011;6282;51.440;6.938;2023-02-28T05:17:43;1999.90;;;999.90;;
12435;SDS011;6282;51.440;6.938;2023-02-28T05:20:10;1999.90;;;999.90;;
12435;SDS011;6282;51.440;6.938;2023-02-28T05:22:39;1999.90;;;999.90;;
12435;SDS011;6282;51.440;6.938;2023-02-28T05:25:06;1999.90;;;999.90;;
12435;SDS011;6282;51.440;6.938;2023-02-28T05:27:34;1999.90;;;999.90;;
12435;SDS011;6282;51.440;6.938;2023-02-28T05:30:01;1999.90;;;999.90;;
12435;SDS011;6282;51.440;6.938;2023-02-28T05:32:30;1999.90;;;999.90;;
12435;SDS011;6282;51.440;6.938;2023-02-28T05:34:57;1999.90;;;999.90;;
12435;SDS011;6282;51.440;6.938;2023-02-28T05:37:24;1999.90;;;999.90;;
12435;SDS011;6282;51.440;6.938;2023-02-28T05:39:51;1999.90;;;999.90;;
12435;SDS011;6282;51.440;6.938;2023-02-28T05:42:18;1999.90;;;999.90;;
12435;SDS011;6282;51.440;6.938;2023-02-28T05:44:45;1999.90;;;999.90;;
12435;SDS011;6282;51.440;6.938;2023-02-28T05:47:12;1999.90;;;999.90;;
12435;SDS011;6282;51.440;6.938;2023-02-28T05:49:41;1999.90;;;999.90;;
12435;SDS011;6282;51.440;6.938;2023-02-28T05:52:08;1999.90;;;999.90;;
12435;SDS011;6282;51.440;6.938;2023-02-28T05:54:35;1999.90;;;999.90;;
12435;SDS011;6282;51.440;6.938;2023-02-28T05:57:02;1999.90;;;999.90;;
12435;SDS011;6282;51.440;6.938;2023-02-28T05:59:29;1382.30;;;713.40;;
12435;SDS011;6282;51.440;6.938;2023-02-28T06:01:56;160.77;;;153.67;;
12435;SDS011;6282;51.440;6.938;2023-02-28T06:04:22;164.77;;;157.20;;
12435;SDS011;6282;51.440;6.938;2023-02-28T06:06:51;159.53;;;152.53;;
12435;SDS011;6282;51.440;6.938;2023-02-28T06:09:17;1999.90;;;999.90;;
12435;SDS011;6282;51.440;6.938;2023-02-28T06:11:45;1999.90;;;999.90;;
12435;SDS011;6282;51.440;6.938;2023-02-28T06:14:13;1999.90;;;999.90;;
12435;SDS011;6282;51.440;6.938;2023-02-28T06:16:41;1999.90;;;999.90;;
12435;SDS011;6282;51.440;6.938;2023-02-28T06:19:08;1999.90;;;999.90;;
12435;SDS011;6282;51.440;6.938;2023-02-28T06:21:36;1999.90;;;999.90;;
12435;SDS011;6282;51.440;6.938;2023-02-28T06:24:06;1999.90;;;999.90;;
12435;SDS011;6282;51.440;6.938;2023-02-28T06:26:33;1999.90;;;999.90;;
12435;SDS011;6282;51.440;6.938;2023-02-28T06:29:00;1999.90;;;999.90;;
12435;SDS011;6282;51.440;6.938;2023-02-28T06:31:28;1999.90;;;999.90;;
12435;SDS011;6282;51.440;6.938;2023-02-28T06:33:55;1999.90;;;999.90;;
12435;SDS011;6282;51.440;6.938;2023-02-28T06:36:22;1999.90;;;999.90;;
12435;SDS011;6282;51.440;6.938;2023-02-28T06:38:49;1999.90;;;999.90;;
12435;SDS011;6282;51.440;6.938;2023-02-28T06:41:21;1999.90;;;999.90;;
12435;SDS011;6282;51.440;6.938;2023-02-28T06:43:48;1999.90;;;999.90;;
12435;SDS011;6282;51.440;6.938;2023-02-28T06:46:15;1999.90;;;999.90;;
12435;SDS011;6282;51.440;6.938;2023-02-28T06:48:42;1999.90;;;999.90;;
12435;SDS011;6282;51.440;6.938;2023-02-28T06:51:10;1999.90;;;999.90;;
12435;SDS011;6282;51.440;6.938;2023-02-28T06:53:39;1999.90;;;999.90;;
12435;SDS011;6282;51.440;6.938;2023-02-28T06:56:07;1999.90;;;999.90;;
12435;SDS011;6282;51.440;6.938;2023-02-28T06:58:36;1999.90;;;999.90;;
12435;SDS011;6282;51.440;6.938;2023-02-28T07:01:04;1999.90;;;999.90;;
12435;SDS011;6282;51.440;6.938;2023-02-28T07:03:31;1999.90;;;999.90;;
12435;SDS011;6282;51.440;6.938;2023-02-28T07:05:58;1999.90;;;999.90;;
12435;SDS011;6282;51.440;6.938;2023-02-28T07:08:26;1999.90;;;999.90;;
12435;SDS011;6282;51.440;6.938;2023-02-28T07:10:53;1999.90;;;999.90;;
12435;SDS011;6282;51.440;6.938;2023-02-28T07:13:20;1999.90;;;999.90;;
12435;SDS011;6282;51.440;6.938;2023-02-28T07:15:54;1999.90;;;999.90;;
12435;SDS011;6282;51.440;6.938;2023-02-28T07:18:21;1999.90;;;999.90;;
12435;SDS011;6282;51.440;6.938;2023-02-28T07:20:49;1999.90;;;999.90;;
12435;SDS011;6282;51.440;6.938;2023-02-28T07:23:16;1999.90;;;999.90;;
12435;SDS011;6282;51.440;6.938;2023-02-28T07:25:43;1999.90;;;999.90;;
12435;SDS011;6282;51.440;6.938;2023-02-28T07:28:10;155.13;;;148.37;;
12435;SDS011;6282;51.440;6.938;2023-02-28T07:30:37;1999.90;;;999.90;;
12435;SDS011;6282;51.440;6.938;2023-02-28T07:33:06;1999.90;;;999.90;;
12435;SDS011;6282;51.440;6.938;2023-02-28T07:35:33;1999.90;;;999.90;;
12435;SDS011;6282;51.440;6.938;2023-02-28T07:38:00;1999.90;;;999.90;;
12435;SDS011;6282;51.440;6.938;2023-02-28T07:40:28;1999.90;;;999.90;;
12435;SDS011;6282;51.440;6.938;2023-02-28T07:42:58;1999.90;;;999.90;;
12435;SDS011;6282;51.440;6.938;2023-02-28T07:45:25;1999.90;;;999.90;;
12435;SDS011;6282;51.440;6.938;2023-02-28T07:47:54;134.97;;;128.97;;
12435;SDS011;6282;51.440;6.938;2023-02-28T07:50:22;133.87;;;127.57;;
12435;SDS011;6282;51.440;6.938;2023-02-28T07:52:49;146.87;;;140.27;;
12435;SDS011;6282;51.440;6.938;2023-02-28T07:55:16;167.50;;;159.90;;
12435;SDS011;6282;51.440;6.938;2023-02-28T07:57:43;249.87;;;238.83;;
12435;SDS011;6282;51.440;6.938;2023-02-28T08:00:11;168.53;;;160.50;;
12435;SDS011;6282;51.440;6.938;2023-02-28T08:02:38;1999.90;;;999.90;;
12435;SDS011;6282;51.440;6.938;2023-02-28T08:05:06;1999.90;;;999.90;;
12435;SDS011;6282;51.440;6.938;2023-02-28T08:07:35;1999.90;;;999.90;;
12435;SDS011;6282;51.440;6.938;2023-02-28T08:10:01;1999.90;;;999.90;;
12435;SDS011;6282;51.440;6.938;2023-02-28T08:12:30;1999.90;;;999.90;;
12435;SDS011;6282;51.440;6.938;2023-02-28T08:14:57;1999.90;;;999.90;;
12435;SDS011;6282;51.440;6.938;2023-02-28T08:17:24;1999.90;;;999.90;;
12435;SDS011;6282;51.440;6.938;2023-02-28T08:19:51;1999.90;;;999.90;;
12435;SDS011;6282;51.440;6.938;2023-02-28T08:22:17;1999.90;;;999.90;;
12435;SDS011;6282;51.440;6.938;2023-02-28T08:24:46;1999.90;;;999.90;;
12435;SDS011;6282;51.440;6.938;2023-02-28T08:27:12;1999.90;;;999.90;;
12435;SDS011;6282;51.440;6.938;2023-02-28T08:29:39;1999.90;;;999.90;;
12435;SDS011;6282;51.440;6.938;2023-02-28T08:32:06;1999.90;;;999.90;;
12435;SDS011;6282;51.440;6.938;2023-02-28T08:34:33;1999.90;;;999.90;;
12435;SDS011;6282;51.440;6.938;2023-02-28T08:37:00;1999.90;;;999.90;;
12435;SDS011;6282;51.440;6.938;2023-02-28T08:39:27;1999.90;;;999.90;;
12435;SDS011;6282;51.440;6.938;2023-02-28T08:41:56;1999.90;;;999.90;;
12435;SDS011;6282;51.440;6.938;2023-02-28T08:44:23;1999.90;;;999.90;;
12435;SDS011;6282;51.440;6.938;2023-02-28T08:46:49;1999.90;;;999.90;;
12435;SDS011;6282;51.440;6.938;2023-02-28T08:49:16;1999.90;;;999.90;;
12435;SDS011;6282;51.440;6.938;2023-02-28T08:51:43;1999.90;;;999.90;;
12435;SDS011;6282;51.440;6.938;2023-02-28T08:54:10;1999.90;;;999.90;;
12435;SDS011;6282;51.440;6.938;2023-02-28T08:56:38;1999.90;;;999.90;;
12435;SDS011;6282;51.440;6.938;2023-02-28T08:59:08;1999.90;;;999.90;;
12435;SDS011;6282;51.440;6.938;2023-02-28T09:01:35;1999.90;;;999.90;;
12435;SDS011;6282;51.440;6.938;2023-02-28T09:04:02;1999.90;;;999.90;;
12435;SDS011;6282;51.440;6.938;2023-02-28T09:06:32;1999.90;;;999.90;;
12435;SDS011;6282;51.440;6.938;2023-02-28T09:08:58;1999.90;;;999.90;;
12435;SDS011;6282;51.440;6.938;2023-02-28T09:11:26;1999.90;;;999.90;;
12435;SDS011;6282;51.440;6.938;2023-02-28T09:13:54;1999.90;;;999.90;;
12435;SDS011;6282;51.440;6.938;2023-02-28T09:16:23;1999.90;;;999.90;;
12435;SDS011;6282;51.440;6.938;2023-02-28T09:18:50;1999.90;;;999.90;;
12435;SDS011;6282;51.440;6.938;2023-02-28T09:21:17;1999.90;;;999.90;;
12435;SDS011;6282;51.440;6.938;2023-02-28T09:23:47;1999.90;;;999.90;;
12435;SDS011;6282;51.440;6.938;2023-02-28T09:26:15;1999.90;;;999.90;;
12435;SDS011;6282;51.440;6.938;2023-02-28T09:28:44;1999.90;;;999.90;;
12435;SDS011;6282;51.440;6.938;2023-02-28T09:31:11;1999.90;;;999.90;;
12435;SDS011;6282;51.440;6.938;2023-02-28T09:33:40;1999.90;;;999.90;;
12435;SDS011;6282;51.440;6.938;2023-02-28T09:36:07;1999.90;;;999.90;;
12435;SDS011;6282;51.440;6.938;2023-02-28T09:38:34;1999.90;;;999.90;;
12435;SDS011;6282;51.440;6.938;2023-02-28T09:41:03;1999.90;;;999.90;;
12435;SDS011;6282;51.440;6.938;2023-02-28T09:43:35;1999.90;;;999.90;;
12435;SDS011;6282;51.440;6.938;2023-02-28T09:46:08;1999.90;;;999.90;;
12435;SDS011;6282;51.440;6.938;2023-02-28T09:48:39;1999.90;;;999.90;;
12435;SDS011;6282;51.440;6.938;2023-02-28T09:51:12;1999.90;;;999.90;;
12435;SDS011;6282;51.440;6.938;2023-02-28T09:53:47;1999.90;;;999.90;;
12435;SDS011;6282;51.440;6.938;2023-02-28T09:56:15;1999.90;;;999.90;;
12435;SDS011;6282;51.440;6.938;2023-02-28T09:58:51;1999.90;;;999.90;;
12435;SDS011;6282;51.440;6.938;2023-02-28T10:01:21;1999.90;;;999.90;;
12435;SDS011;6282;51.440;6.938;2023-02-28T10:03:54;1999.90;;;999.90;;
12435;SDS011;6282;51.440;6.938;2023-02-28T10:06:26;1999.90;;;999.90;;
12435;SDS011;6282;51.440;6.938;2023-02-28T10:08:56;1999.90;;;999.90;;
12435;SDS011;6282;51.440;6.938;2023-02-28T10:11:27;97.63;;;93.27;;
12435;SDS011;6282;51.440;6.938;2023-02-28T10:13:56;112.33;;;107.50;;
12435;SDS011;6282;51.440;6.938;2023-02-28T10:16:28;1999.90;;;999.90;;
12435;SDS011;6282;51.440;6.938;2023-02-28T10:19:02;1999.90;;;999.90;;
12435;SDS011;6282;51.440;6.938;2023-02-28T10:21:34;106.57;;;101.97;;
12435;SDS011;6282;51.440;6.938;2023-02-28T10:24:04;219.37;;;205.97;;
12435;SDS011;6282;51.440;6.938;2023-02-28T10:26:40;74.10;;;70.87;;
12435;SDS011;6282;51.440;6.938;2023-02-28T10:29:13;1368.37;;;699.87;;
12435;SDS011;6282;51.440;6.938;2023-02-28T10:31:40;83.67;;;80.07;;
12435;SDS011;6282;51.440;6.938;2023-02-28T10:34:09;82.00;;;78.50;;
12435;SDS011;6282;51.440;6.938;2023-02-28T10:36:39;120.87;;;114.33;;
12435;SDS011;6282;51.440;6.938;2023-02-28T10:42:05;117.83;;;112.13;;
12435;SDS011;6282;51.440;6.938;2023-02-28T10:44:45;155.03;;;144.73;;
12435;SDS011;6282;51.440;6.938;2023-02-28T10:47:13;83.07;;;79.43;;
12435;SDS011;6282;51.440;6.938;2023-02-28T10:49:47;158.00;;;150.43;;
12435;SDS011;6282;51.440;6.938;2023-02-28T10:52:32;1999.90;;;999.90;;
12435;SDS011;6282;51.440;6.938;2023-02-28T10:55:13;1358.93;;;690.97;;
12435;SDS011;6282;51.440;6.938;2023-02-28T10:57:42;148.27;;;140.47;;
12435;SDS011;6282;51.440;6.938;2023-02-28T11:00:13;57.40;;;54.57;;
12435;SDS011;6282;51.440;6.938;2023-02-28T11:02:41;1999.90;;;999.90;;
12435;SDS011;6282;51.440;6.938;2023-02-28T11:05:25;1999.90;;;999.90;;
12435;SDS011;6282;51.440;6.938;2023-02-28T11:07:54;129.93;;;123.73;;
12435;SDS011;6282;51.440;6.938;2023-02-28T11:10:24;82.30;;;78.73;;
12435;SDS011;6282;51.440;6.938;2023-02-28T11:12:55;231.10;;;218.30;;
12435;SDS011;6282;51.440;6.938;2023-02-28T11:15:23;331.03;;;307.10;;
12435;SDS011;6282;51.440;6.938;2023-02-28T11:17:55;247.97;;;233.40;;
12435;SDS011;6282;51.440;6.938;2023-02-28T11:20:26;119.37;;;113.90;;
12435;SDS011;6282;51.440;6.938;2023-02-28T11:22:57;250.57;;;235.97;;
12435;SDS011;6282;51.440;6.938;2023-02-28T11:25:26;116.60;;;111.47;;
12435;SDS011;6282;51.440;6.938;2023-02-28T11:27:58;114.63;;;109.10;;
12435;SDS011;6282;51.440;6.938;2023-02-28T11:30:28;146.40;;;140.10;;
12435;SDS011;6282;51.440;6.938;2023-02-28T11:32:58;255.00;;;240.43;;
12435;SDS011;6282;51.440;6.938;2023-02-28T11:35:28;180.87;;;171.27;;
12435;SDS011;6282;51.440;6.938;2023-02-28T11:37:59;121.03;;;115.03;;
12435;SDS011;6282;51.440;6.938;2023-02-28T11:40:31;63.37;;;60.53;;
12435;SDS011;6282;51.440;6.938;2023-02-28T11:43:06;252.07;;;235.10;;
12435;SDS011;6282;51.440;6.938;2023-02-28T11:45:48;433.70;;;400.73;;
12435;SDS011;6282;51.440;6.938;2023-02-28T11:48:37;256.37;;;241.00;;
12435;SDS011;6282;51.440;6.938;2023-02-28T11:51:15;360.10;;;334.60;;
12435;SDS011;6282;51.440;6.938;2023-02-28T11:53:50;122.27;;;116.83;;
12435;SDS011;6282;51.440;6.938;2023-02-28T11:56:30;157.60;;;150.50;;
12435;SDS011;6282;51.440;6.938;2023-02-28T11:59:05;206.53;;;196.37;;
12435;SDS011;6282;51.440;6.938;2023-02-28T12:01:51;86.13;;;82.43;;
12435;SDS011;6282;51.440;6.938;2023-02-28T12:04:33;271.43;;;254.43;;
12435;SDS011;6282;51.440;6.938;2023-02-28T12:07:11;752.60;;;414.97;;
12435;SDS011;6282;51.440;6.938;2023-02-28T12:09:45;145.57;;;137.63;;
12435;SDS011;6282;51.440;6.938;2023-02-28T12:12:25;756.67;;;419.27;;
12435;SDS011;6282;51.440;6.938;2023-02-28T12:15:13;150.47;;;143.00;;
12435;SDS011;6282;51.440;6.938;2023-02-28T12:17:55;84.97;;;81.20;;
12435;SDS011;6282;51.440;6.938;2023-02-28T12:20:40;739.17;;;402.67;;
12435;SDS011;6282;51.440;6.938;2023-02-28T12:26:13;1375.47;;;706.90;;
12435;SDS011;6282;51.440;6.938;2023-02-28T12:28:46;118.20;;;113.23;;
12435;SDS011;6282;51.440;6.938;2023-02-28T12:31:17;750.57;;;413.60;;
12435;SDS011;6282;51.440;6.938;2023-02-28T12:33:50;774.93;;;436.80;;
12435;SDS011;6282;51.440;6.938;2023-02-28T12:36:21;118.13;;;113.13;;
12435;SDS011;6282;51.440;6.938;2023-02-28T12:38:53;137.13;;;130.30;;
12435;SDS011;6282;51.440;6.938;2023-02-28T12:41:24;288.90;;;270.70;;
12435;SDS011;6282;51.440;6.938;2023-02-28T12:44:00;171.10;;;162.53;;
12435;SDS011;6282;51.440;6.938;2023-02-28T12:46:32;113.77;;;108.93;;
12435;SDS011;6282;51.440;6.938;2023-02-28T12:49:04;132.57;;;126.93;;
12435;SDS011;6282;51.440;6.938;2023-02-28T12:51:34;1999.90;;;999.90;;
12435;SDS011;6282;51.440;6.938;2023-02-28T12:54:09;129.90;;;124.37;;
12435;SDS011;6282;51.440;6.938;2023-02-28T12:56:42;121.20;;;115.90;;
12435;SDS011;6282;51.440;6.938;2023-02-28T12:59:16;250.50;;;236.63;;
12435;SDS011;6282;51.440;6.938;2023-02-28T13:01:48;132.90;;;126.97;;
12435;SDS011;6282;51.440;6.938;2023-02-28T13:04:53;106.97;;;102.10;;
12435;SDS011;6282;51.440;6.938;2023-02-28T13:10:38;128.20;;;122.80;;
12435;SDS011;6282;51.440;6.938;2023-02-28T13:13:11;157.67;;;148.70;;
12435;SDS011;6282;51.440;6.938;2023-02-28T13:15:53;750.97;;;414.07;;
12435;SDS011;6282;51.440;6.938;2023-02-28T13:18:32;172.83;;;164.00;;
12435;SDS011;6282;51.440;6.938;2023-02-28T13:21:01;117.67;;;112.57;;
12435;SDS011;6282;51.440;6.938;2023-02-28T13:23:56;180.50;;;169.50;;
12435;SDS011;6282;51.440;6.938;2023-02-28T13:29:28;1999.90;;;999.90;;
12435;SDS011;6282;51.440;6.938;2023-02-28T13:44:05;125.57;;;120.27;;
12435;SDS011;6282;51.440;6.938;2023-02-28T13:46:34;1999.90;;;999.90;;
12435;SDS011;6282;51.440;6.938;2023-02-28T13:49:18;1999.90;;;999.90;;
12435;SDS011;6282;51.440;6.938;2023-02-28T13:51:46;1999.90;;;999.90;;
12435;SDS011;6282;51.440;6.938;2023-02-28T13:54:20;1999.90;;;999.90;;
12435;SDS011;6282;51.440;6.938;2023-02-28T13:57:00;1999.90;;;999.90;;
12435;SDS011;6282;51.440;6.938;2023-02-28T13:59:32;728.63;;;391.97;;
12435;SDS011;6282;51.440;6.938;2023-02-28T14:02:17;1999.90;;;999.90;;
12435;SDS011;6282;51.440;6.938;2023-02-28T14:04:56;1999.90;;;999.90;;
12435;SDS011;6282;51.440;6.938;2023-02-28T14:07:28;1999.90;;;999.90;;
12435;SDS011;6282;51.440;6.938;2023-02-28T14:09:58;1999.90;;;999.90;;
12435;SDS011;6282;51.440;6.938;2023-02-28T14:15:39;1999.90;;;999.90;;
12435;SDS011;6282;51.440;6.938;2023-02-28T14:18:23;1999.90;;;999.90;;
12435;SDS011;6282;51.440;6.938;2023-02-28T14:20:54;1999.90;;;999.90;;
12435;SDS011;6282;51.440;6.938;2023-02-28T14:23:30;1999.90;;;999.90;;
12435;SDS011;6282;51.440;6.938;2023-02-28T14:26:07;1999.90;;;999.90;;
12435;SDS011;6282;51.440;6.938;2023-02-28T14:28:49;1999.90;;;999.90;;
12435;SDS011;6282;51.440;6.938;2023-02-28T14:31:28;1999.90;;;999.90;;
12435;SDS011;6282;51.440;6.938;2023-02-28T14:34:04;1999.90;;;999.90;;
12435;SDS011;6282;51.440;6.938;2023-02-28T14:36:43;1999.90;;;999.90;;
12435;SDS011;6282;51.440;6.938;2023-02-28T14:39:12;1999.90;;;999.90;;
12435;SDS011;6282;51.440;6.938;2023-02-28T14:41:41;1999.90;;;999.90;;
12435;SDS011;6282;51.440;6.938;2023-02-28T14:44:18;1999.90;;;999.90;;
12435;SDS011;6282;51.440;6.938;2023-02-28T14:46:48;1999.90;;;999.90;;
12435;SDS011;6282;51.440;6.938;2023-02-28T14:49:18;1346.70;;;679.47;;
12435;SDS011;6282;51.440;6.938;2023-02-28T14:51:46;1999.90;;;999.90;;
12435;SDS011;6282;51.440;6.938;2023-02-28T14:54:14;1999.90;;;999.90;;